Terminal Aerodrome Forecast
Issued by NWS Tampa Bay Area, FL

Home | Current Version | Previous Version | Text Only | Print | Product List | Glossary On
Versions: 1 2 3 4 5 6 7 8 9 10 11 12 13 14 15 16 17 18 19 20 21 22 23 24 25 26 27 28
810
FTUS42 KTBW 242320
TAFTPA
TAF
KTPA 242320Z 2500/2524 27006KT P6SM SCT040 SCT100
     FM250200 VRB03KT P6SM VCSH SCT035 BKN100
     FM250400 00000KT P6SM FEW030 SCT100 SCT250
     FM251400 15005KT P6SM SCT030 BKN100
     FM251800 24006KT P6SM VCTS BKN040CB BKN100
     FM252100 29009KT P6SM VCTS SCT040CB BKN100=

USA.gov is the U.S. government's official web portal to all federal, state and local government web resources and services.